Time;durP1;ratioP1;P1;durP2;ratioP2;P2;SDS_P1;SDS_P2;PMS_P1;PMS_P2;Temp;Humidity;BMP_temperature;BMP_pressure;BME280_temperature;BME280_humidity;BME280_pressure;Samples;Min_cycle;Max_cycle;Signal;HPM_P1;HPM_P2
2023/12/09 00:02:47;;;;;;;15.25;7.70;;;8.20;99.90;;;;;;10094061;28;20522;-68
2023/12/09 00:07:38;;;;;;;14.02;9.18;;;8.20;99.90;;;;;;10095046;28;20036;-67
2023/12/09 00:12:29;;;;;;;19.55;9.35;;;8.20;99.90;;;;;;10094652;28;20025;-67
2023/12/09 00:17:22;;;;;;;12.63;8.23;;;8.20;99.90;;;;;;10088090;28;20060;-67
2023/12/09 00:22:13;;;;;;;17.80;9.05;;;8.20;99.90;;;;;;10097757;28;20562;-68
2023/12/09 00:27:04;;;;;;;14.45;7.97;;;8.20;99.90;;;;;;10100643;28;20048;-68
2023/12/09 00:31:55;;;;;;;16.83;9.75;;;8.30;99.90;;;;;;10100174;28;20025;-69
2023/12/09 00:36:45;;;;;;;11.75;7.97;;;8.30;99.90;;;;;;10098655;28;20051;-69
2023/12/09 00:41:36;;;;;;;13.45;7.47;;;8.20;99.90;;;;;;10097167;28;20548;-68
2023/12/09 00:46:28;;;;;;;15.15;8.68;;;8.20;99.90;;;;;;10101880;28;20029;-69
2023/12/09 00:51:19;;;;;;;15.15;8.13;;;8.20;99.90;;;;;;10091206;28;20036;-69
2023/12/09 00:56:09;;;;;;;15.43;7.90;;;8.10;99.90;;;;;;10082205;28;20466;-68
2023/12/09 01:01:00;;;;;;;11.43;6.95;;;8.10;99.90;;;;;;10089588;28;20029;-67
2023/12/09 01:05:51;;;;;;;13.63;7.22;;;8.10;99.90;;;;;;10097645;28;20113;-68
2023/12/09 01:10:41;;;;;;;14.43;6.43;;;8.10;99.90;;;;;;10099706;28;20098;-68
2023/12/09 01:15:32;;;;;;;9.73;6.75;;;8.10;99.90;;;;;;10097856;28;20092;-68
2023/12/09 01:20:24;;;;;;;9.68;6.40;;;8.20;99.90;;;;;;10091229;28;20025;-68
2023/12/09 01:25:15;;;;;;;15.50;8.35;;;8.10;99.90;;;;;;10089471;28;20024;-68
2023/12/09 01:30:06;;;;;;;14.07;7.78;;;8.10;99.90;;;;;;10084931;28;20025;-69
2023/12/09 01:34:57;;;;;;;14.50;7.82;;;8.20;99.90;;;;;;10078365;28;20037;-68
2023/12/09 01:39:47;;;;;;;15.68;7.40;;;8.20;99.90;;;;;;10083595;28;20017;-70
2023/12/09 01:44:38;;;;;;;15.80;7.78;;;8.20;99.90;;;;;;10086596;28;20497;-70
2023/12/09 01:49:29;;;;;;;13.63;7.88;;;8.20;99.90;;;;;;10085047;28;20032;-69
2023/12/09 01:54:20;;;;;;;18.10;7.68;;;8.20;99.90;;;;;;10081340;28;20032;-69
2023/12/09 01:59:11;;;;;;;15.52;8.98;;;8.20;99.90;;;;;;10084896;28;20509;-70
2023/12/09 02:04:02;;;;;;;14.80;7.45;;;8.30;99.90;;;;;;10087809;28;20051;-71
2023/12/09 02:08:54;;;;;;;15.18;7.15;;;8.20;99.90;;;;;;10090872;28;20382;-70
2023/12/09 02:13:56;;;;;;;12.48;7.07;;;8.20;99.90;;;;;;10084107;28;20040;-69
2023/12/09 02:18:48;;;;;;;14.25;7.40;;;8.30;99.90;;;;;;10082143;28;20056;-68
2023/12/09 02:23:39;;;;;;;12.85;6.57;;;8.30;99.90;;;;;;10082787;28;20029;-68
2023/12/09 02:28:32;;;;;;;10.90;6.25;;;8.30;99.90;;;;;;10084698;28;20505;-69
2023/12/09 02:33:24;;;;;;;12.57;6.30;;;8.30;99.90;;;;;;10083577;28;20041;-69
2023/12/09 02:38:17;;;;;;;12.70;7.28;;;8.30;99.90;;;;;;10083334;28;20033;-68
2023/12/09 02:43:09;;;;;;;11.23;5.72;;;8.30;99.90;;;;;;10084281;28;20025;-68
2023/12/09 02:48:00;;;;;;;8.93;5.38;;;8.30;99.90;;;;;;10067189;28;20025;-68
2023/12/09 02:52:50;;;;;;;14.05;6.28;;;8.30;99.90;;;;;;10079711;28;20628;-69
2023/12/09 02:57:41;;;;;;;10.30;5.72;;;8.40;99.90;;;;;;10083325;28;20033;-70
2023/12/09 03:02:32;;;;;;;14.32;5.15;;;8.40;99.90;;;;;;10081148;28;20032;-70
2023/12/09 03:07:22;;;;;;;16.17;5.85;;;8.40;99.90;;;;;;10086737;28;20025;-69
2023/12/09 03:12:13;;;;;;;9.00;5.50;;;8.30;99.90;;;;;;10093004;28;20492;-70
2023/12/09 03:17:04;;;;;;;9.52;4.57;;;8.40;99.90;;;;;;10107240;28;20518;-69
2023/12/09 03:21:57;;;;;;;9.38;4.75;;;8.40;99.90;;;;;;10098362;28;20016;-69
2023/12/09 03:26:51;;;;;;;8.85;5.53;;;8.30;99.90;;;;;;10095591;28;20045;-69
2023/12/09 03:31:42;;;;;;;12.52;5.65;;;8.40;99.90;;;;;;10086914;28;20078;-69
2023/12/09 03:36:32;;;;;;;14.93;6.47;;;8.40;99.90;;;;;;10068085;28;20037;-68
2023/12/09 03:41:23;;;;;;;12.40;5.75;;;8.30;99.90;;;;;;10087979;28;20067;-68
2023/12/09 03:46:13;;;;;;;13.13;6.45;;;8.30;99.90;;;;;;10090180;28;20036;-67
2023/12/09 03:51:04;;;;;;;8.80;5.13;;;8.30;99.90;;;;;;10093323;28;20040;-68
2023/12/09 03:55:55;;;;;;;9.82;4.97;;;8.30;99.90;;;;;;10090460;28;20505;-68
2023/12/09 04:00:46;;;;;;;8.73;5.43;;;8.40;99.90;;;;;;10085104;28;20356;-67
2023/12/09 04:05:38;;;;;;;10.15;5.18;;;8.40;99.90;;;;;;10087279;28;20091;-68
2023/12/09 04:10:28;;;;;;;12.95;4.60;;;8.30;99.90;;;;;;10086275;28;20322;-68
2023/12/09 04:15:19;;;;;;;11.63;5.20;;;8.40;99.90;;;;;;10087295;28;20139;-68
2023/12/09 04:20:10;;;;;;;6.70;4.05;;;8.50;99.90;;;;;;10095001;28;20525;-68
2023/12/09 04:25:04;;;;;;;7.70;3.85;;;8.50;99.90;;;;;;10087307;28;20029;-68
2023/12/09 04:29:55;;;;;;;6.55;4.78;;;8.50;99.90;;;;;;10086609;28;20514;-68
2023/12/09 04:34:46;;;;;;;10.20;4.28;;;8.50;99.90;;;;;;10085129;28;20025;-68
2023/12/09 04:39:36;;;;;;;8.05;4.63;;;8.40;99.90;;;;;;10090958;28;20060;-68
2023/12/09 04:44:27;;;;;;;10.88;5.07;;;8.40;99.90;;;;;;10087367;28;20036;-68
2023/12/09 04:49:18;;;;;;;8.85;4.03;;;8.40;99.90;;;;;;10090160;28;20489;-68
2023/12/09 04:54:08;;;;;;;7.50;4.18;;;8.40;99.90;;;;;;10081936;28;20056;-68
2023/12/09 04:59:00;;;;;;;10.88;5.00;;;8.50;99.90;;;;;;10089007;28;20144;-68
2023/12/09 05:03:50;;;;;;;14.52;5.35;;;8.40;99.90;;;;;;10077785;28;20670;-68
2023/12/09 05:08:42;;;;;;;6.80;4.05;;;8.50;99.90;;;;;;10090043;28;20188;-68
2023/12/09 05:13:32;;;;;;;11.48;3.95;;;8.50;99.90;;;;;;10086287;28;20441;-68
2023/12/09 05:18:23;;;;;;;8.27;4.32;;;8.50;99.90;;;;;;10091391;28;20052;-67
2023/12/09 05:23:13;;;;;;;8.70;5.10;;;8.50;99.90;;;;;;10091298;28;20021;-68
2023/12/09 05:28:04;;;;;;;7.75;4.60;;;8.40;99.90;;;;;;10099678;28;20040;-68
2023/12/09 05:32:57;;;;;;;6.80;3.70;;;8.50;99.90;;;;;;10098674;28;20033;-68
2023/12/09 05:37:48;;;;;;;7.22;4.22;;;8.50;99.90;;;;;;10098176;28;20063;-68
2023/12/09 05:42:38;;;;;;;10.88;4.63;;;8.50;99.90;;;;;;10098050;28;20501;-68
2023/12/09 05:47:29;;;;;;;7.28;4.10;;;8.50;99.90;;;;;;10097926;28;20036;-67
2023/12/09 05:52:20;;;;;;;10.00;4.70;;;8.40;99.90;;;;;;10098979;28;20359;-67
2023/12/09 05:57:10;;;;;;;7.22;3.80;;;8.40;99.90;;;;;;10098237;28;20037;-68
2023/12/09 06:02:01;;;;;;;8.68;5.18;;;8.40;99.90;;;;;;10097062;28;20036;-67
2023/12/09 06:06:51;;;;;;;10.88;4.90;;;8.50;99.90;;;;;;10089374;28;20052;-68
2023/12/09 06:11:42;;;;;;;8.15;4.45;;;8.40;99.90;;;;;;10096465;28;20062;-68
2023/12/09 06:16:33;;;;;;;8.25;3.95;;;8.40;99.90;;;;;;10095369;28;20387;-68
2023/12/09 06:21:26;;;;;;;8.35;4.68;;;8.40;99.90;;;;;;10078641;28;20103;-68
2023/12/09 06:26:17;;;;;;;9.52;4.43;;;8.40;99.90;;;;;;10077898;28;20119;-67
2023/12/09 06:31:07;;;;;;;6.95;3.67;;;8.40;99.90;;;;;;10100418;28;20028;-67
2023/12/09 06:35:58;;;;;;;10.52;4.95;;;8.40;99.90;;;;;;10096235;28;20058;-68
2023/12/09 06:40:48;;;;;;;12.00;3.58;;;8.40;99.90;;;;;;10098224;28;20025;-68
2023/12/09 06:45:39;;;;;;;10.68;5.05;;;8.40;99.90;;;;;;10095342;28;20037;-67
2023/12/09 06:50:30;;;;;;;8.55;4.30;;;8.40;99.90;;;;;;10096410;28;20052;-68
2023/12/09 06:55:20;;;;;;;7.85;4.30;;;8.40;99.90;;;;;;10092293;28;20549;-68
2023/12/09 07:00:12;;;;;;;6.68;4.07;;;8.40;99.90;;;;;;10095384;28;20029;-68
2023/12/09 07:05:03;;;;;;;7.45;4.88;;;8.40;99.90;;;;;;10095079;28;20028;-68
2023/12/09 07:09:55;;;;;;;7.97;3.33;;;8.40;99.90;;;;;;10094199;28;20024;-68
2023/12/09 07:14:46;;;;;;;5.63;3.65;;;8.40;99.90;;;;;;10093323;28;20045;-69
2023/12/09 07:19:37;;;;;;;6.47;3.88;;;8.40;99.90;;;;;;10093714;28;20049;-68
2023/12/09 07:24:27;;;;;;;6.70;3.47;;;8.40;99.90;;;;;;10094994;28;20108;-68
2023/12/09 07:29:18;;;;;;;5.85;3.30;;;8.40;99.90;;;;;;10097476;28;20025;-68
2023/12/09 07:34:15;;;;;;;10.35;3.42;;;8.40;99.90;;;;;;10096376;28;20021;-68
2023/12/09 07:39:05;;;;;;;6.38;2.85;;;8.40;99.90;;;;;;10093738;28;20075;-68
2023/12/09 07:43:56;;;;;;;6.07;3.17;;;8.40;99.90;;;;;;10095176;28;20036;-69
2023/12/09 07:48:50;;;;;;;7.65;4.57;;;8.30;99.90;;;;;;10067485;28;20497;-68
2023/12/09 07:53:41;;;;;;;6.10;3.00;;;8.30;99.90;;;;;;10066035;28;20535;-68
2023/12/09 07:58:32;;;;;;;5.82;2.92;;;8.30;99.90;;;;;;10101906;28;20123;-68
2023/12/09 08:03:22;;;;;;;5.03;3.10;;;8.40;99.90;;;;;;10093676;28;20032;-67
2023/12/09 08:08:13;;;;;;;7.07;3.88;;;8.40;99.90;;;;;;10099128;28;20383;-69
2023/12/09 08:13:03;;;;;;;4.10;3.10;;;8.50;99.90;;;;;;10097775;28;20029;-70
2023/12/09 08:17:54;;;;;;;6.35;3.10;;;8.50;99.90;;;;;;10100531;28;20139;-69
2023/12/09 08:22:45;;;;;;;5.15;2.92;;;8.50;99.90;;;;;;10102546;28;20060;-69
2023/12/09 08:27:38;;;;;;;5.88;2.92;;;8.60;99.90;;;;;;10094167;28;20031;-70
2023/12/09 08:32:29;;;;;;;4.03;2.92;;;8.60;99.90;;;;;;10094200;28;20370;-73
2023/12/09 08:37:25;;;;;;;5.82;3.05;;;8.60;99.90;;;;;;10090358;28;20502;-70
2023/12/09 08:42:15;;;;;;;;;;;8.60;99.90;;;;;;10097890;28;20013;-69
2023/12/09 08:47:06;;;;;;;4.80;2.10;;;8.50;99.90;;;;;;10069372;28;19913;-69
2023/12/09 08:51:58;;;;;;;3.83;2.65;;;8.60;99.90;;;;;;10099122;28;20037;-70
2023/12/09 08:56:49;;;;;;;6.72;2.58;;;8.60;99.90;;;;;;10060661;28;20053;-70
2023/12/09 09:01:39;;;;;;;4.65;2.03;;;8.70;99.90;;;;;;10088405;28;20029;-70
2023/12/09 09:06:30;;;;;;;4.90;2.42;;;8.70;99.90;;;;;;10087878;28;20055;-69
2023/12/09 09:11:21;;;;;;;3.50;2.10;;;8.70;99.90;;;;;;10086485;28;20029;-70
2023/12/09 09:16:14;;;;;;;6.50;2.58;;;8.80;99.90;;;;;;10098711;28;20045;-69
2023/12/09 09:21:05;;;;;;;2.38;1.65;;;8.90;99.90;;;;;;10098259;28;20036;-69
2023/12/09 09:25:56;;;;;;;3.10;1.85;;;8.90;99.90;;;;;;10098134;28;20040;-68
2023/12/09 09:30:46;;;;;;;3.78;2.47;;;8.80;99.90;;;;;;10097619;28;20486;-68
2023/12/09 09:35:37;;;;;;;4.90;2.25;;;8.90;99.90;;;;;;10097753;28;20032;-68
2023/12/09 09:40:28;;;;;;;2.90;1.50;;;8.90;99.90;;;;;;10097260;28;20025;-69
2023/12/09 09:45:26;;;;;;;2.83;1.70;;;8.90;99.90;;;;;;10096785;28;20060;-69
2023/12/09 09:50:23;;;;;;;3.38;2.00;;;8.90;99.90;;;;;;10097577;28;20086;-69
2023/12/09 09:55:16;;;;;;;4.40;2.20;;;8.90;99.90;;;;;;10096108;28;20635;-69
2023/12/09 10:00:14;;;;;;;3.13;1.98;;;8.90;99.90;;;;;;10096917;28;20422;-69
2023/12/09 10:05:06;;;;;;;3.90;2.17;;;8.90;99.90;;;;;;10095145;28;20035;-69
2023/12/09 10:09:56;;;;;;;2.33;1.70;;;8.90;99.90;;;;;;10093424;28;20060;-69
2023/12/09 10:14:47;;;;;;;3.70;2.35;;;8.90;99.90;;;;;;10095355;28;20068;-68
2023/12/09 10:19:42;;;;;;;3.53;1.77;;;8.90;99.90;;;;;;10092821;28;20514;-69
2023/12/09 10:24:33;;;;;;;6.78;2.15;;;9.00;99.90;;;;;;10080208;28;20577;-69
2023/12/09 10:29:25;;;;;;;4.07;2.38;;;8.90;99.90;;;;;;10096470;28;20113;-69
2023/12/09 10:34:16;;;;;;;1.80;1.33;;;8.90;99.90;;;;;;10069151;28;20029;-69
2023/12/09 10:39:10;;;;;;;5.07;2.17;;;8.90;99.90;;;;;;10095553;28;20505;-70
2023/12/09 10:44:02;;;;;;;4.43;1.88;;;9.00;99.90;;;;;;10076168;28;20029;-69
2023/12/09 10:48:54;;;;;;;2.92;2.40;;;9.00;99.90;;;;;;10095413;28;20033;-69
2023/12/09 10:53:45;;;;;;;3.28;1.42;;;9.00;99.90;;;;;;10069589;28;20037;-68
2023/12/09 10:58:36;;;;;;;2.90;1.73;;;9.00;99.90;;;;;;10076837;28;20418;-69
2023/12/09 11:03:28;;;;;;;2.30;1.38;;;9.00;99.90;;;;;;10071108;28;20028;-69
2023/12/09 11:08:20;;;;;;;3.00;1.55;;;9.10;99.90;;;;;;10095828;28;20037;-70
2023/12/09 11:13:11;;;;;;;3.10;2.05;;;9.10;99.90;;;;;;10076775;28;20037;-69
2023/12/09 11:18:09;;;;;;;5.00;2.05;;;9.10;99.90;;;;;;10098660;28;20615;-69
2023/12/09 11:23:04;;;;;;;3.65;2.03;;;9.20;99.90;;;;;;10094357;28;20029;-69
2023/12/09 11:27:58;;;;;;;4.60;1.80;;;9.20;99.90;;;;;;10101001;28;20501;-70
2023/12/09 11:32:48;;;;;;;5.85;2.15;;;9.30;99.90;;;;;;10108506;28;20517;-70
2023/12/09 11:37:39;;;;;;;4.07;2.25;;;9.40;99.90;;;;;;10103718;28;20041;-68
2023/12/09 11:42:31;;;;;;;3.60;2.03;;;9.40;99.90;;;;;;10098760;28;20025;-69
2023/12/09 11:47:22;;;;;;;2.45;1.70;;;9.50;99.90;;;;;;10077332;28;20036;-69
2023/12/09 11:52:13;;;;;;;3.95;2.17;;;9.50;99.90;;;;;;10093755;28;20032;-69
2023/12/09 11:57:04;;;;;;;1.73;1.17;;;9.60;99.90;;;;;;10086046;28;20274;-69
2023/12/09 12:01:55;;;;;;;2.90;1.38;;;9.60;99.90;;;;;;10096763;28;20479;-69
2023/12/09 12:06:46;;;;;;;1.33;0.90;;;9.70;99.90;;;;;;10093520;28;20036;-69
2023/12/09 12:11:36;;;;;;;2.58;0.98;;;9.70;99.90;;;;;;10098048;28;20462;-69
2023/12/09 12:16:27;;;;;;;2.08;1.00;;;9.80;99.90;;;;;;10100246;28;20053;-68
2023/12/09 12:21:18;;;;;;;2.58;1.45;;;9.80;99.90;;;;;;10100140;28;20104;-68
2023/12/09 12:26:11;;;;;;;1.55;1.08;;;9.80;99.90;;;;;;10100689;28;20180;-68
2023/12/09 12:31:03;;;;;;;1.50;0.80;;;9.80;99.90;;;;;;10099734;28;20123;-71
2023/12/09 12:35:55;;;;;;;4.82;1.20;;;9.90;99.90;;;;;;10099758;28;20044;-70
2023/12/09 12:40:46;;;;;;;1.95;0.90;;;9.80;99.90;;;;;;10098877;28;20140;-69
2023/12/09 12:45:39;;;;;;;1.90;0.85;;;9.90;99.90;;;;;;10099257;28;20104;-70
2023/12/09 12:50:29;;;;;;;3.00;0.85;;;9.80;99.90;;;;;;10099057;28;20128;-70
2023/12/09 12:55:20;;;;;;;1.63;0.50;;;9.80;99.90;;;;;;10098711;28;20025;-69
2023/12/09 13:00:14;;;;;;;2.05;0.57;;;9.90;99.90;;;;;;10098996;28;20048;-70
2023/12/09 13:05:06;;;;;;;0.80;0.70;;;9.80;99.90;;;;;;10073854;28;20063;-70
2023/12/09 13:09:56;;;;;;;2.60;0.80;;;9.80;99.90;;;;;;10095090;28;20525;-69
2023/12/09 13:14:47;;;;;;;1.92;1.45;;;9.70;99.90;;;;;;10096282;28;20056;-70
2023/12/09 13:19:38;;;;;;;1.65;0.98;;;9.70;99.90;;;;;;10098546;28;20099;-69
2023/12/09 13:24:33;;;;;;;2.22;0.90;;;9.70;99.90;;;;;;10098106;28;20552;-70
2023/12/09 13:29:24;;;;;;;2.40;0.80;;;9.60;99.90;;;;;;10097523;28;20041;-70
2023/12/09 13:34:15;;;;;;;1.25;0.85;;;9.60;99.90;;;;;;10102495;28;20048;-70
2023/12/09 13:39:11;;;;;;;1.45;0.70;;;9.60;99.90;;;;;;10097293;28;20102;-71
2023/12/09 13:44:03;;;;;;;2.17;0.70;;;9.60;99.90;;;;;;10096706;28;20040;-69
2023/12/09 13:48:54;;;;;;;1.65;0.60;;;9.50;99.90;;;;;;10097814;28;20474;-70
2023/12/09 13:53:46;;;;;;;1.67;0.55;;;9.50;99.90;;;;;;10080564;28;20032;-70
2023/12/09 13:58:36;;;;;;;3.88;0.60;;;9.50;99.90;;;;;;10086856;28;20040;-69
2023/12/09 14:03:28;;;;;;;0.82;0.57;;;9.40;99.90;;;;;;10096362;28;20032;-70
2023/12/09 14:08:19;;;;;;;1.50;0.77;;;9.30;99.90;;;;;;10096576;28;20025;-70
2023/12/09 14:13:10;;;;;;;2.97;0.60;;;9.30;99.90;;;;;;10096020;28;20505;-68
2023/12/09 14:18:01;;;;;;;2.22;0.85;;;9.20;99.90;;;;;;10096130;28;20052;-69
2023/12/09 14:22:52;;;;;;;1.98;0.90;;;9.20;99.90;;;;;;10095959;28;20387;-70
2023/12/09 14:27:43;;;;;;;1.50;1.15;;;9.20;99.90;;;;;;10096737;28;20071;-70
2023/12/09 14:32:34;;;;;;;0.88;0.80;;;9.10;99.90;;;;;;10093974;28;20055;-69
2023/12/09 14:37:25;;;;;;;1.33;0.88;;;9.10;99.90;;;;;;10087372;28;20041;-69
2023/12/09 14:42:15;;;;;;;1.33;0.80;;;9.10;99.90;;;;;;10069356;28;20108;-69
2023/12/09 14:47:06;;;;;;;1.52;0.80;;;9.00;99.90;;;;;;10080704;28;20037;-70
2023/12/09 14:51:57;;;;;;;1.90;1.30;;;9.00;99.90;;;;;;10094447;28;20137;-70
2023/12/09 14:56:48;;;;;;;2.58;1.30;;;9.00;99.90;;;;;;10093317;28;20045;-70
2023/12/09 15:01:39;;;;;;;1.65;0.70;;;9.00;99.90;;;;;;10097959;28;20106;-70
2023/12/09 15:06:31;;;;;;;1.17;0.75;;;9.10;99.90;;;;;;10109115;28;20029;-70
2023/12/09 15:11:24;;;;;;;1.83;1.00;;;9.10;99.90;;;;;;10099682;28;20020;-70
2023/12/09 15:16:15;;;;;;;1.55;0.63;;;9.00;99.90;;;;;;10103121;28;20130;-70
2023/12/09 15:21:06;;;;;;;0.88;0.57;;;9.10;99.90;;;;;;10102426;28;20409;-70
2023/12/09 15:25:57;;;;;;;2.88;1.55;;;9.10;99.90;;;;;;10101509;28;20033;-70
2023/12/09 15:30:48;;;;;;;1.75;0.73;;;9.10;99.90;;;;;;10102038;28;20083;-70
2023/12/09 15:35:39;;;;;;;5.05;1.27;;;9.10;99.90;;;;;;10102490;28;20083;-70
2023/12/09 15:40:29;;;;;;;2.20;1.23;;;9.10;99.90;;;;;;10101921;28;20122;-70
2023/12/09 15:45:20;;;;;;;4.18;1.02;;;9.10;99.90;;;;;;10102502;28;20063;-68
2023/12/09 15:50:11;;;;;;;2.05;0.90;;;9.10;99.90;;;;;;10102024;28;20116;-69
2023/12/09 15:55:02;;;;;;;2.03;0.95;;;9.10;99.90;;;;;;10097784;28;20032;-70
2023/12/09 15:59:53;;;;;;;2.67;1.20;;;9.10;99.90;;;;;;10101731;28;20051;-69
2023/12/09 16:04:43;;;;;;;2.38;1.13;;;9.10;99.90;;;;;;10098502;28;20582;-69
2023/12/09 16:09:34;;;;;;;1.33;1.05;;;9.10;99.90;;;;;;10080626;28;20028;-70
2023/12/09 16:14:25;;;;;;;1.35;1.08;;;9.10;99.90;;;;;;10099612;28;20103;-70
2023/12/09 16:19:15;;;;;;;1.38;0.70;;;9.10;99.90;;;;;;10082360;28;20037;-69
2023/12/09 16:24:06;;;;;;;1.77;1.25;;;9.10;99.90;;;;;;10100560;28;20088;-70
2023/12/09 16:28:57;;;;;;;1.40;1.13;;;9.10;99.90;;;;;;10100080;28;20028;-70
2023/12/09 16:33:51;;;;;;;1.63;1.08;;;9.10;99.90;;;;;;10099264;28;20040;-69
2023/12/09 16:38:41;;;;;;;0.88;0.73;;;9.00;99.90;;;;;;10081631;28;20058;-70
2023/12/09 16:43:32;;;;;;;2.15;0.95;;;9.10;99.90;;;;;;10081469;28;20525;-69
2023/12/09 16:48:23;;;;;;;1.33;0.80;;;9.10;99.90;;;;;;10099669;28;20500;-69
2023/12/09 16:53:22;;;;;;;1.20;0.68;;;9.10;99.90;;;;;;10098967;28;20458;-69
2023/12/09 16:58:12;;;;;;;0.70;0.65;;;9.10;99.90;;;;;;10100138;28;20628;-69
2023/12/09 17:03:03;;;;;;;0.80;0.70;;;9.10;99.90;;;;;;10094070;28;20051;-71
2023/12/09 17:07:54;;;;;;;1.13;0.88;;;9.20;99.90;;;;;;10077956;28;20098;-70
2023/12/09 17:12:45;;;;;;;1.27;0.73;;;9.20;99.90;;;;;;10106645;28;20033;-70
2023/12/09 17:17:36;;;;;;;1.30;0.98;;;9.20;99.90;;;;;;10097619;28;20049;-71
2023/12/09 17:22:31;;;;;;;2.03;1.15;;;9.20;99.90;;;;;;10081955;28;20457;-70
2023/12/09 17:27:21;;;;;;;1.23;0.90;;;9.20;99.90;;;;;;10088196;28;20033;-70
2023/12/09 17:32:12;;;;;;;1.85;0.75;;;9.30;99.90;;;;;;10072285;28;20037;-69
2023/12/09 17:37:03;;;;;;;1.23;0.77;;;9.30;99.90;;;;;;10093765;28;20439;-71
2023/12/09 17:41:57;;;;;;;1.42;0.60;;;9.20;99.90;;;;;;10097203;28;20112;-71
2023/12/09 17:46:50;;;;;;;2.15;0.90;;;9.20;99.90;;;;;;10097414;28;20108;-71
2023/12/09 17:51:41;;;;;;;0.60;0.60;;;9.20;99.90;;;;;;10071675;28;20060;-72
2023/12/09 17:56:33;;;;;;;0.43;0.40;;;9.20;99.90;;;;;;10097495;28;20447;-70
2023/12/09 18:01:24;;;;;;;1.20;1.10;;;9.20;99.90;;;;;;10094789;28;20031;-70
2023/12/09 18:06:15;;;;;;;1.63;1.50;;;9.20;99.90;;;;;;10086075;28;20486;-70
2023/12/09 18:11:06;;;;;;;1.65;0.75;;;9.20;99.90;;;;;;10072699;28;20120;-71
2023/12/09 18:15:57;;;;;;;3.17;1.02;;;9.20;99.90;;;;;;10093425;28;20090;-70
2023/12/09 18:20:48;;;;;;;2.25;0.95;;;9.30;99.90;;;;;;10093564;28;20441;-69
2023/12/09 18:25:39;;;;;;;1.50;1.00;;;9.30;99.90;;;;;;10096220;28;20070;-69
2023/12/09 18:30:30;;;;;;;1.23;0.70;;;9.30;99.90;;;;;;10095681;28;20029;-71
2023/12/09 18:35:21;;;;;;;3.30;1.50;;;9.30;99.90;;;;;;10094493;28;20036;-71
2023/12/09 18:40:12;;;;;;;1.75;1.08;;;9.30;99.90;;;;;;10095686;28;20039;-70
2023/12/09 18:45:04;;;;;;;1.42;0.82;;;9.30;99.90;;;;;;10095175;28;20470;-71
2023/12/09 18:49:55;;;;;;;3.63;1.40;;;9.30;99.90;;;;;;10093851;28;20017;-71
2023/12/09 18:54:46;;;;;;;2.00;1.30;;;9.30;99.90;;;;;;10090718;28;20410;-70
2023/12/09 18:59:37;;;;;;;2.30;1.60;;;9.20;99.90;;;;;;10083455;28;20407;-70
2023/12/09 19:04:28;;;;;;;2.63;1.30;;;9.30;99.90;;;;;;10095825;28;20026;-70
2023/12/09 19:09:19;;;;;;;2.20;1.00;;;9.30;99.90;;;;;;10091795;28;20103;-70
2023/12/09 19:14:10;;;;;;;2.70;1.10;;;9.30;99.90;;;;;;10094847;28;20410;-70
2023/12/09 19:19:01;;;;;;;3.30;1.60;;;9.40;99.90;;;;;;10072611;28;20083;-70
2023/12/09 19:23:54;;;;;;;3.10;1.73;;;9.40;99.90;;;;;;10095082;28;20025;-70
2023/12/09 19:28:45;;;;;;;2.97;1.35;;;9.40;99.90;;;;;;10095592;28;20568;-71
2023/12/09 19:33:36;;;;;;;2.20;1.25;;;9.40;99.90;;;;;;10095281;28;20202;-71
2023/12/09 19:38:27;;;;;;;1.23;0.88;;;9.40;99.90;;;;;;10095795;28;20171;-71
2023/12/09 19:43:17;;;;;;;3.50;1.30;;;9.40;99.90;;;;;;10095583;28;20028;-71
2023/12/09 19:48:08;;;;;;;1.27;1.17;;;9.40;99.90;;;;;;10081450;28;20037;-71
2023/12/09 19:53:00;;;;;;;2.13;1.38;;;9.50;99.90;;;;;;10101904;28;20021;-72
2023/12/09 19:57:52;;;;;;;1.33;1.08;;;9.50;99.90;;;;;;10102583;28;20095;-72
2023/12/09 20:02:44;;;;;;;2.17;1.35;;;9.60;99.90;;;;;;10081463;28;20035;-72
2023/12/09 20:07:35;;;;;;;1.27;0.65;;;9.60;99.90;;;;;;10087341;28;20084;-73
2023/12/09 20:12:25;;;;;;;2.88;0.82;;;9.60;99.90;;;;;;10101434;28;20064;-71
2023/12/09 20:17:16;;;;;;;2.33;1.17;;;9.60;99.90;;;;;;10100004;28;20106;-71
2023/12/09 20:22:08;;;;;;;2.58;1.67;;;9.70;99.90;;;;;;10099574;28;20044;-71
2023/12/09 20:26:59;;;;;;;1.40;1.10;;;9.70;99.90;;;;;;10101473;28;20029;-70
2023/12/09 20:31:50;;;;;;;2.75;0.85;;;9.80;99.90;;;;;;10100188;28;20398;-71
2023/12/09 20:36:40;;;;;;;1.52;0.93;;;9.80;99.90;;;;;;10082981;28;20195;-70
2023/12/09 20:41:31;;;;;;;1.25;0.90;;;9.80;99.90;;;;;;10100133;28;20051;-72
2023/12/09 20:46:22;;;;;;;1.48;0.80;;;9.90;99.90;;;;;;10100573;28;20473;-71
2023/12/09 20:51:13;;;;;;;1.75;1.05;;;9.90;99.90;;;;;;10099510;28;20056;-71
2023/12/09 20:56:05;;;;;;;1.67;0.80;;;9.90;99.90;;;;;;10090417;28;20177;-72
2023/12/09 21:00:58;;;;;;;1.25;0.80;;;10.00;99.90;;;;;;10079714;28;20482;-72
2023/12/09 21:05:48;;;;;;;0.47;0.40;;;10.10;99.90;;;;;;10098896;28;20033;-72
2023/12/09 21:10:39;;;;;;;1.50;0.60;;;10.20;99.90;;;;;;10091254;28;20084;-71
2023/12/09 21:15:30;;;;;;;1.17;0.30;;;10.30;99.90;;;;;;10098029;28;20124;-71
2023/12/09 21:20:21;;;;;;;0.63;0.32;;;10.30;99.90;;;;;;10098273;28;20398;-71
2023/12/09 21:25:12;;;;;;;0.95;0.52;;;10.30;99.90;;;;;;10098798;28;20025;-72
2023/12/09 21:30:04;;;;;;;1.60;0.60;;;10.40;99.90;;;;;;10090897;28;20514;-71
2023/12/09 21:34:55;;;;;;;1.55;0.70;;;10.40;99.90;;;;;;10097559;28;20040;-72
2023/12/09 21:39:46;;;;;;;0.95;0.63;;;10.50;99.90;;;;;;10090826;28;20033;-71
2023/12/09 21:44:37;;;;;;;1.30;0.90;;;10.60;99.90;;;;;;10087137;28;20029;-72
2023/12/09 21:49:27;;;;;;;3.17;0.57;;;10.70;99.90;;;;;;10087874;28;20040;-71
2023/12/09 21:54:18;;;;;;;3.40;1.45;;;10.70;99.90;;;;;;10088891;28;20025;-71
2023/12/09 21:59:09;;;;;;;3.15;0.95;;;10.70;99.90;;;;;;10095297;28;20052;-70
2023/12/09 22:03:59;;;;;;;3.67;1.20;;;10.70;99.90;;;;;;10093407;28;20602;-71
2023/12/09 22:08:51;;;;;;;2.58;1.05;;;10.80;99.90;;;;;;10072587;28;20035;-71
2023/12/09 22:13:44;;;;;;;3.95;1.48;;;10.90;99.90;;;;;;10089447;28;20391;-70
2023/12/09 22:18:35;;;;;;;3.13;1.27;;;10.90;99.90;;;;;;10095992;28;20049;-70
2023/12/09 22:23:26;;;;;;;6.78;1.60;;;10.80;99.90;;;;;;10096280;28;20032;-71
2023/12/09 22:28:16;;;;;;;5.53;1.35;;;10.70;99.90;;;;;;10096855;28;20494;-72
2023/12/09 22:33:07;;;;;;;2.40;1.17;;;10.70;99.90;;;;;;10095986;28;20529;-71
2023/12/09 22:37:58;;;;;;;4.95;1.50;;;10.90;99.90;;;;;;10078317;28;20136;-71
2023/12/09 22:42:49;;;;;;;4.97;1.63;;;10.90;99.90;;;;;;10095286;28;20035;-72
2023/12/09 22:47:40;;;;;;;4.28;1.25;;;10.90;99.90;;;;;;10101682;28;20403;-71
2023/12/09 22:52:30;;;;;;;7.68;1.50;;;10.90;99.90;;;;;;10082445;28;20017;-72
2023/12/09 22:57:21;;;;;;;8.90;1.77;;;10.90;99.90;;;;;;10073202;28;20049;-71
2023/12/09 23:02:12;;;;;;;5.20;1.70;;;10.90;99.90;;;;;;10092679;28;20072;-71
2023/12/09 23:07:03;;;;;;;8.38;1.80;;;10.90;99.90;;;;;;10075252;28;20029;-71
2023/12/09 23:11:54;;;;;;;4.75;2.10;;;11.00;99.90;;;;;;10087612;28;20090;-71
2023/12/09 23:16:45;;;;;;;6.03;1.08;;;11.00;99.90;;;;;;10095207;28;20088;-71
2023/12/09 23:21:36;;;;;;;10.57;2.00;;;11.00;99.90;;;;;;10096887;28;20032;-72
2023/12/09 23:26:27;;;;;;;9.35;2.20;;;11.00;99.90;;;;;;10102339;28;20021;-72
2023/12/09 23:31:18;;;;;;;7.45;1.88;;;11.10;99.90;;;;;;10102239;28;20036;-73
2023/12/09 23:36:09;;;;;;;8.80;2.13;;;11.10;99.90;;;;;;10102214;28;20033;-72
2023/12/09 23:41:00;;;;;;;12.85;1.77;;;11.10;99.90;;;;;;10102472;28;20059;-72
2023/12/09 23:45:50;;;;;;;5.35;2.13;;;11.10;99.90;;;;;;10102711;28;20032;-72
2023/12/09 23:50:41;;;;;;;6.82;2.90;;;11.00;99.90;;;;;;10102137;28;20064;-71
2023/12/09 23:55:32;;;;;;;10.57;2.13;;;11.00;99.90;;;;;;10102010;28;20060;-71
